Linda, Antarctica

7:32 AM GMT on December 25, 2014 (GMT +0000)
Williams Field | Change Station
CLOSE
Current Station
Airport
Location: Williams Field,
Elevation: 79 ft
Nearby Weather Stations

Elev 79 ft 77.85 °S, 166.67 °E | Updated 1 hour ago

Mostly Cloudy
Mostly Cloudy
21 °F
Feels Like 10 °F
N
10
Wind Variable Wind from East

Today
High -- | Low -- °F
--% Chance of Precip.
Yesterday
High -- | Low -- °F
Precip. -- in
0:00 AM 0:00 AM
Waxing Crescent, 14% visible
Pressure 29.12 in
Visibility 6.2 miles
Clouds Few 1000 ft
Mostly Cloudy 2000 ft
Windchill 10 °F
Dew Point 12 °F
Humidity 68%
Rainfall 0.00 in
Snow Depth Not available.
UV 1 out of 12
Pollen Not available.
Air Quality Not available.
Flu Activity Not available.
METAR NZCM 250555Z 09009KT 9999 FEW010 BKN020 M06/M11 A2910 RMK SLP859 SN DSNT SE-S

More Conditions Fewer Conditions

Pressure 29.12 in
Visibility 6.2 miles
Clouds Few 1000 ft
Mostly Cloudy 2000 ft
Windchill 10 °F
Dew Point 12 °F
Humidity 68%
Rainfall 0.00 in
Snow Depth Not available.
UV 1 out of 12
Pollen Not available.
Air Quality Not available.
Flu Activity Not available.
METAR NZCM 250555Z 09009KT 9999 FEW010 BKN020 M06/M11 A2910 RMK SLP859 SN DSNT SE-S

More Conditions Fewer Conditions

10-Day Weather Forecast

Almanac

Astronomy

Dec. 25, 2014 Rise Set
Actual Time
Civil Twilight
Nautical Twilight
Astronomical Twilight
Moon
Length of Visible Light
Length of Day
Tomorrow will be .
, % of the Moon is Illuminated

Today's Extremes

Country Highs Country Lows

Community

WunderPhotos

Upload Photos

1,780,250 photos uploaded!

WunderBlogs® & News

Nearby

Air Quality

  Air Quality AQ Index Pollutant
Not available.

Snow Depth

Station Depth Elevation

Earthquake Activity

City Distance Mag. Time & Date
Minimum magnitude displayed is 2.5.

Coastal Water Temperatures

Place Temperature

Nearby Weather Stations